Fredericton Cda Cs, New Brunswick

5:08 PM ADT on August 30, 2016 (GMT -0300)
Carrington Heights | | Change Station

Elev 112 ft 45.99 °N, 66.65 °W | Updated 1 minute ago

Overcast
Overcast
73.2 °F
Feels Like 71 °F
N
0.0
Wind Variable Wind from WNW

Today
High -- | Low -- °F
--% Chance of Precip.
Yesterday
High -- | Low -- °F
Precip. -- in
Pressure 29.96 in
Visibility 9.0 miles
Clouds Overcast 9000 ft
Heat Index 71 °F
Dew Point Not available.
Humidity Not available.
Rainfall 0.00 in
Snow Depth Not available.
6:45 AM 8:07 PM
Waning Crescent, 3% visible
METAR CYFC 302000Z AUTO 29005KT 9SM OVC090 24/13 A2996 RMK SLP145 DENSITY ALT 1000FT
Pressure 29.96 in
Visibility 9.0 miles
Clouds Overcast 9000 ft
Heat Index 71 °F
Dew Point Not available.
Humidity Not available.
Rainfall 0.00 in
Snow Depth Not available.
6:45 AM 8:07 PM
Waning Crescent, 3% visible
METAR CYFC 302000Z AUTO 29005KT 9SM OVC090 24/13 A2996 RMK SLP145 DENSITY ALT 1000FT

10-Day Weather Forecast

Almanac

Astronomy

Aug. 30, 2016 Rise Set
Actual Time
Civil Twilight
Nautical Twilight
Astronomical Twilight
Moon
Length of Visible Light
Length of Day
Tomorrow will be .
, % of the Moon is Illuminated

Today's Extremes

Country Highs Country Lows

Community

WunderPhotos

Upload Photos

1,935,886 photos uploaded!

WunderBlog® & News

Nearby

Air Quality

  Air Quality AQ Index Pollutant
Not available.

Snow Depth

Station Depth Elevation

Earthquake Activity

City Distance Mag. Time & Date
Minimum magnitude displayed is 2.5.

Coastal Water Temperatures

Place Temperature

Stations

Nearby Weather Stations

Station Location Temp. Windchill Dew Point Humidity Wind Precip. Elev Updated Type
                   

Watches & Warnings

There are currently no watches in effect.